5R8

De Quincy Industrial Airpark

De Quincy, Louisiana, USA
METAR K5R8 181655Z AUTO 11004KT 10SM SCT055 20/12 A3022 RMK AO2 T02000121
Observed Flight Rules
Nov-18 @ 16:55 UTC (20 minutes ago) Visual Flight Rules
Wind Visibility Clouds
110° at 4 knots 10 miles
  • Scattered at 5,500' AGL
Temperatures Readings
Current 20°C / 68°F
Dewpoint 12°C / 54°F
Humidity 60%
Altimeter 30.22" Hg
Pressure 1023 hPa
Elevation 24
METAR K5R8 181655Z AUTO 11004KT 10SM SCT055 20/12 A3022 RMK AO2 T02000121
Observed Flight Rules
Nov-18 @ 16:55 UTC
(20 minutes ago)
VFR
Wind Visibility
110° at 4 knots 10 miles
Clouds
  • Scattered at 5,500' AGL
Temperature Dewpoint
20°C / 68°F 12°C / 54°F
Humidity Altimeter Pressure
60% 30.22" Hg 1023 hPa